createdAt,value
2017-12-26T00:00:27.131Z,22.8
2017-12-26T00:01:35.216Z,22.8
2017-12-26T00:02:43.304Z,22.8
2017-12-26T00:03:51.378Z,22.9
2017-12-26T00:04:59.474Z,22.8
2017-12-26T00:06:07.566Z,22.9
2017-12-26T00:07:15.652Z,22.9
2017-12-26T00:08:23.751Z,22.9
2017-12-26T00:09:31.825Z,22.9
2017-12-26T00:10:39.920Z,22.9
2017-12-26T00:11:47.997Z,22.9
2017-12-26T00:12:56.085Z,22.9
2017-12-26T00:14:04.175Z,23.0
2017-12-26T00:15:12.260Z,22.8
2017-12-26T00:16:20.342Z,22.9
2017-12-26T00:17:28.430Z,22.9
2017-12-26T00:18:36.527Z,23.0
2017-12-26T00:19:44.602Z,23.0
2017-12-26T00:20:52.703Z,22.9
2017-12-26T00:22:00.784Z,23.0
2017-12-26T00:23:08.872Z,22.9
2017-12-26T00:24:16.944Z,23.0
2017-12-26T00:25:25.038Z,23.0
2017-12-26T00:26:33.116Z,22.9
2017-12-26T00:27:41.205Z,23.0
2017-12-26T00:28:49.290Z,22.9
2017-12-26T00:29:57.389Z,23.0
2017-12-26T00:31:05.464Z,23.0
2017-12-26T00:32:13.567Z,23.0
2017-12-26T00:33:21.639Z,23.0
2017-12-26T00:34:29.724Z,23.0
2017-12-26T00:35:37.807Z,23.0
2017-12-26T00:36:45.894Z,23.0
2017-12-26T00:37:53.988Z,23.0
2017-12-26T00:39:02.076Z,23.0
2017-12-26T00:40:10.170Z,23.1
2017-12-26T00:41:18.247Z,23.0
2017-12-26T00:42:26.339Z,23.1
2017-12-26T00:43:34.420Z,23.0
2017-12-26T00:44:42.505Z,23.1
2017-12-26T00:45:50.593Z,23.1
2017-12-26T00:46:58.741Z,23.1
2017-12-26T00:48:06.771Z,23.0
2017-12-26T00:49:14.853Z,23.1
2017-12-26T00:50:22.938Z,23.1
2017-12-26T00:51:31.030Z,23.1
2017-12-26T00:52:39.110Z,23.1
2017-12-26T00:53:47.574Z,23.1
2017-12-26T00:54:55.662Z,23.1
2017-12-26T00:56:03.748Z,23.1
2017-12-26T00:57:11.834Z,23.1
2017-12-26T00:58:19.921Z,23.1
2017-12-26T00:59:28.008Z,23.1
2017-12-26T01:00:36.097Z,23.1
2017-12-26T01:01:44.183Z,23.1
2017-12-26T01:02:52.268Z,23.1
2017-12-26T01:04:00.351Z,23.1
2017-12-26T01:05:08.439Z,23.2
2017-12-26T01:06:16.526Z,23.2
2017-12-26T01:07:24.611Z,23.2
2017-12-26T01:08:32.699Z,23.2
2017-12-26T01:09:40.786Z,23.2
2017-12-26T01:10:48.871Z,23.1
2017-12-26T01:11:56.956Z,23.2
2017-12-26T01:13:05.043Z,23.2
2017-12-26T01:14:13.130Z,23.2
2017-12-26T01:15:21.220Z,23.1
2017-12-26T01:16:29.303Z,23.2
2017-12-26T01:17:37.391Z,23.1
2017-12-26T01:18:45.494Z,23.1
2017-12-26T01:19:53.579Z,23.1
2017-12-26T01:21:01.666Z,23.2
2017-12-26T01:22:09.750Z,23.1
2017-12-26T01:23:17.839Z,23.1
2017-12-26T01:24:25.924Z,23.1
2017-12-26T01:25:34.013Z,23.2
2017-12-26T01:26:42.098Z,23.1
2017-12-26T01:27:50.185Z,23.1
2017-12-26T01:28:58.269Z,23.2
2017-12-26T01:30:06.370Z,23.2
2017-12-26T01:31:14.459Z,23.2
2017-12-26T01:32:22.545Z,23.2
2017-12-26T01:33:30.629Z,23.1
2017-12-26T01:34:38.718Z,23.2
2017-12-26T01:35:46.811Z,23.1
2017-12-26T01:36:54.899Z,23.1
2017-12-26T01:38:02.985Z,23.2
2017-12-26T01:39:11.084Z,23.2
2017-12-26T01:40:19.179Z,23.1
2017-12-26T01:41:27.267Z,23.1
2017-12-26T01:42:35.355Z,23.2
2017-12-26T01:43:43.441Z,23.1
2017-12-26T01:44:51.529Z,23.1
2017-12-26T01:45:59.643Z,23.1
2017-12-26T01:47:07.704Z,23.2
2017-12-26T01:48:15.787Z,23.1
2017-12-26T01:49:23.872Z,23.1
2017-12-26T01:50:31.958Z,23.1
2017-12-26T01:51:40.046Z,23.2
2017-12-26T01:52:48.135Z,23.2
2017-12-26T01:53:56.221Z,23.2
2017-12-26T01:55:04.307Z,23.1
2017-12-26T01:56:12.393Z,23.2
2017-12-26T01:57:20.479Z,23.2
2017-12-26T01:58:28.579Z,23.2
2017-12-26T01:59:36.662Z,23.1
2017-12-26T02:00:44.749Z,23.1
2017-12-26T02:01:52.843Z,23.1
2017-12-26T02:03:00.930Z,23.2
2017-12-26T02:04:09.022Z,23.2
2017-12-26T02:05:17.104Z,23.2
2017-12-26T02:06:25.283Z,23.1
2017-12-26T02:07:33.273Z,23.1
2017-12-26T02:08:41.363Z,23.1
2017-12-26T02:09:49.447Z,23.1
2017-12-26T02:10:57.551Z,23.1
2017-12-26T02:12:05.649Z,23.1
2017-12-26T02:13:13.735Z,23.1
2017-12-26T02:14:21.829Z,23.1
2017-12-26T02:15:29.919Z,23.1
2017-12-26T02:16:38.007Z,23.0
2017-12-26T02:17:46.092Z,23.1
2017-12-26T02:18:54.178Z,23.1
2017-12-26T02:20:02.260Z,23.1
2017-12-26T02:21:10.360Z,23.0
2017-12-26T02:22:18.448Z,23.1
2017-12-26T02:23:26.544Z,23.1
2017-12-26T02:24:34.627Z,23.1
2017-12-26T02:25:42.715Z,23.0
2017-12-26T02:26:50.830Z,23.1
2017-12-26T02:27:58.898Z,23.1
2017-12-26T02:29:06.984Z,23.0
2017-12-26T02:30:15.070Z,22.9
2017-12-26T02:31:23.161Z,23.0
2017-12-26T02:32:31.243Z,23.0
2017-12-26T02:33:39.331Z,23.0
2017-12-26T02:34:47.418Z,23.0
2017-12-26T02:35:55.505Z,23.0
2017-12-26T02:37:03.592Z,22.9
2017-12-26T02:38:11.679Z,22.9
2017-12-26T02:39:19.763Z,22.9
2017-12-26T02:40:27.889Z,22.9
2017-12-26T02:41:35.937Z,22.9
2017-12-26T02:42:44.023Z,22.9
2017-12-26T02:43:52.109Z,23.0
2017-12-26T02:45:00.199Z,22.9
2017-12-26T02:46:08.287Z,22.9
2017-12-26T02:47:16.369Z,22.9
2017-12-26T02:48:24.454Z,22.8
2017-12-26T02:49:32.546Z,22.8
2017-12-26T02:50:40.627Z,22.9
2017-12-26T02:51:48.715Z,22.8
2017-12-26T02:52:56.815Z,22.9
2017-12-26T02:54:04.885Z,22.9
2017-12-26T02:55:12.974Z,22.9
2017-12-26T02:56:21.061Z,22.8
2017-12-26T02:57:29.148Z,22.8
2017-12-26T02:58:37.232Z,22.8
2017-12-26T02:59:45.318Z,22.8
2017-12-26T03:00:53.412Z,22.8
2017-12-26T03:02:01.490Z,22.8
2017-12-26T03:03:09.580Z,22.8
2017-12-26T03:04:17.669Z,22.8
2017-12-26T03:05:25.753Z,22.8
2017-12-26T03:06:33.843Z,22.7
2017-12-26T03:07:41.925Z,22.8
2017-12-26T03:08:50.016Z,22.8
2017-12-26T03:09:58.096Z,22.7
2017-12-26T03:11:06.192Z,22.8
2017-12-26T03:12:14.281Z,22.8
2017-12-26T03:13:22.365Z,22.7
2017-12-26T03:14:30.452Z,22.8
2017-12-26T03:15:38.538Z,22.6
2017-12-26T03:16:46.624Z,22.6
2017-12-26T03:17:54.709Z,22.6
2017-12-26T03:19:02.796Z,22.6
2017-12-26T03:20:10.922Z,22.6
2017-12-26T03:21:19.007Z,22.7
2017-12-26T03:22:27.094Z,22.6
2017-12-26T03:23:35.185Z,22.6
2017-12-26T03:24:43.268Z,22.6
2017-12-26T03:25:51.355Z,22.6
2017-12-26T03:26:59.440Z,22.6
2017-12-26T03:28:07.526Z,22.6
2017-12-26T03:29:15.612Z,22.6
2017-12-26T03:30:23.700Z,22.6
2017-12-26T03:31:31.784Z,22.6
2017-12-26T03:32:39.871Z,22.6
2017-12-26T03:33:47.960Z,22.6
2017-12-26T03:34:56.047Z,22.5
2017-12-26T03:36:04.134Z,22.6
2017-12-26T03:37:12.219Z,22.5
2017-12-26T03:38:20.304Z,22.5
2017-12-26T03:39:28.409Z,22.5
2017-12-26T03:40:36.476Z,22.5
2017-12-26T03:41:44.572Z,22.5
2017-12-26T03:42:52.658Z,22.5
2017-12-26T03:44:00.754Z,22.6
2017-12-26T03:45:08.841Z,22.6
2017-12-26T03:46:16.942Z,22.5
2017-12-26T03:47:25.028Z,22.5
2017-12-26T03:48:33.116Z,22.5
2017-12-26T03:49:41.201Z,22.4
2017-12-26T03:50:49.288Z,22.3
2017-12-26T03:51:57.372Z,22.4
2017-12-26T03:53:05.459Z,22.4
2017-12-26T03:54:13.548Z,22.4
2017-12-26T03:55:21.634Z,22.3
2017-12-26T03:56:29.720Z,22.3
2017-12-26T03:57:37.806Z,22.3
2017-12-26T03:58:45.898Z,22.3
2017-12-26T03:59:53.984Z,22.3
2017-12-26T04:01:02.072Z,22.3
2017-12-26T04:02:10.160Z,22.3
2017-12-26T04:03:18.245Z,22.3
2017-12-26T04:04:26.332Z,22.3
2017-12-26T04:05:34.414Z,22.3
2017-12-26T04:06:42.501Z,22.3
2017-12-26T04:07:50.589Z,22.2
2017-12-26T04:08:58.675Z,22.3
2017-12-26T04:10:06.773Z,22.2
2017-12-26T04:11:14.847Z,22.1
2017-12-26T04:12:22.932Z,22.2
2017-12-26T04:13:31.023Z,22.1
2017-12-26T04:14:39.117Z,22.1
2017-12-26T04:15:47.193Z,22.1
2017-12-26T04:16:55.279Z,22.1
2017-12-26T04:18:03.369Z,22.1
2017-12-26T04:19:11.449Z,22.1
2017-12-26T04:20:19.537Z,22.1
2017-12-26T04:21:27.621Z,22.1
2017-12-26T04:22:35.707Z,22.0
2017-12-26T04:23:43.792Z,22.0
2017-12-26T04:24:51.879Z,21.9
2017-12-26T04:25:59.970Z,21.9
2017-12-26T04:27:08.053Z,21.9
2017-12-26T04:28:16.137Z,21.9
2017-12-26T04:29:24.230Z,21.9
2017-12-26T04:30:32.313Z,21.9
2017-12-26T04:31:40.393Z,21.9
2017-12-26T04:32:48.479Z,21.9
2017-12-26T04:33:56.565Z,21.8
2017-12-26T04:35:04.653Z,21.8
2017-12-26T04:36:12.738Z,21.8
2017-12-26T04:37:20.825Z,21.7
2017-12-26T04:38:28.906Z,21.8
2017-12-26T04:39:36.992Z,21.7
2017-12-26T04:40:45.078Z,21.8
2017-12-26T04:41:53.165Z,21.8
2017-12-26T04:43:01.252Z,21.7
2017-12-26T04:44:09.338Z,21.7
2017-12-26T04:45:17.422Z,21.7
2017-12-26T04:46:25.512Z,21.7
2017-12-26T04:47:33.593Z,21.7
2017-12-26T04:48:41.676Z,21.7
2017-12-26T04:49:49.762Z,21.7
2017-12-26T04:50:57.856Z,21.7
2017-12-26T04:52:05.933Z,21.6
2017-12-26T04:53:14.018Z,21.7
2017-12-26T04:54:22.123Z,21.6
2017-12-26T04:55:30.211Z,21.7
2017-12-26T04:56:38.298Z,21.7
2017-12-26T04:57:46.384Z,21.6
2017-12-26T04:58:54.469Z,21.6
2017-12-26T05:00:02.547Z,21.6
2017-12-26T05:01:10.665Z,21.6
2017-12-26T05:02:18.732Z,21.6
2017-12-26T05:03:26.817Z,21.5
2017-12-26T05:04:34.899Z,21.6
2017-12-26T05:05:42.988Z,21.6
2017-12-26T05:06:51.074Z,21.5
2017-12-26T05:07:59.172Z,21.6
2017-12-26T05:09:07.255Z,21.4
2017-12-26T05:10:15.330Z,21.4
2017-12-26T05:11:23.412Z,21.5
2017-12-26T05:12:31.512Z,21.4
2017-12-26T05:13:39.584Z,21.4
2017-12-26T05:14:47.705Z,21.4
2017-12-26T05:15:55.763Z,21.3
2017-12-26T05:17:03.853Z,21.3
2017-12-26T05:18:11.935Z,21.3
2017-12-26T05:19:20.019Z,21.3
2017-12-26T05:20:28.114Z,21.3
2017-12-26T05:21:36.196Z,21.2
2017-12-26T05:22:44.282Z,21.3
2017-12-26T05:23:52.434Z,21.2
2017-12-26T05:25:00.502Z,21.1
2017-12-26T05:26:08.591Z,21.1
2017-12-26T05:27:16.676Z,21.2
2017-12-26T05:28:24.759Z,21.1
2017-12-26T05:29:32.850Z,21.1
2017-12-26T05:30:40.935Z,21.0
2017-12-26T05:31:49.017Z,21.1
2017-12-26T05:32:57.108Z,21.0
2017-12-26T05:34:05.192Z,21.1
2017-12-26T05:35:13.273Z,21.0
2017-12-26T05:36:21.357Z,21.0
2017-12-26T05:37:29.687Z,21.0
2017-12-26T05:38:37.767Z,21.0
2017-12-26T05:39:45.851Z,21.0
2017-12-26T05:40:53.936Z,20.9
2017-12-26T05:42:02.027Z,20.9
2017-12-26T05:43:10.107Z,20.9
2017-12-26T05:44:18.192Z,21.0
2017-12-26T05:45:26.278Z,20.9
2017-12-26T05:46:34.363Z,20.9
2017-12-26T05:47:42.447Z,20.9
2017-12-26T05:48:50.532Z,20.9
2017-12-26T05:49:58.614Z,20.8
2017-12-26T05:51:06.704Z,20.9
2017-12-26T05:52:14.789Z,20.8
2017-12-26T05:53:22.872Z,20.8
2017-12-26T05:54:30.958Z,20.9
2017-12-26T05:55:39.044Z,20.8
2017-12-26T05:56:47.129Z,20.8
2017-12-26T05:57:55.213Z,20.8
2017-12-26T05:59:03.298Z,20.8
2017-12-26T06:00:11.380Z,20.8
2017-12-26T06:01:19.465Z,20.7
2017-12-26T06:02:27.553Z,20.6
2017-12-26T06:03:35.637Z,20.7
2017-12-26T06:04:43.720Z,20.6
2017-12-26T06:05:51.805Z,20.7
2017-12-26T06:06:59.892Z,20.6
2017-12-26T06:08:07.973Z,20.6
2017-12-26T06:09:16.058Z,20.6
2017-12-26T06:10:24.141Z,20.6
2017-12-26T06:11:32.236Z,20.6
2017-12-26T06:12:40.322Z,20.5
2017-12-26T06:13:48.407Z,20.5
2017-12-26T06:14:56.489Z,20.5
2017-12-26T06:16:04.578Z,20.5
2017-12-26T06:17:12.660Z,20.5
2017-12-26T06:18:20.745Z,20.5
2017-12-26T06:19:28.834Z,20.4
2017-12-26T06:20:36.912Z,20.4
2017-12-26T06:21:45.008Z,20.5
2017-12-26T06:22:53.090Z,20.5
2017-12-26T06:24:01.174Z,20.5
2017-12-26T06:25:09.262Z,20.5
2017-12-26T06:26:17.344Z,20.5
2017-12-26T06:27:25.428Z,20.5
2017-12-26T06:28:33.542Z,20.4
2017-12-26T06:29:41.601Z,20.5
2017-12-26T06:30:49.686Z,20.4
2017-12-26T06:31:57.774Z,20.4
2017-12-26T06:33:05.853Z,20.5
2017-12-26T06:34:13.941Z,20.5
2017-12-26T06:35:22.024Z,20.5
2017-12-26T06:36:30.111Z,20.4
2017-12-26T06:37:38.193Z,20.5
2017-12-26T06:38:46.280Z,20.4
2017-12-26T06:39:54.369Z,20.4
2017-12-26T06:41:02.449Z,20.5
2017-12-26T06:42:10.648Z,20.5
2017-12-26T06:43:18.717Z,20.4
2017-12-26T06:44:26.803Z,20.3
2017-12-26T06:45:34.890Z,20.4
2017-12-26T06:46:42.974Z,20.4
2017-12-26T06:47:51.058Z,20.3
2017-12-26T06:48:59.182Z,20.3
2017-12-26T06:50:07.237Z,20.5
2017-12-26T06:51:15.348Z,20.3
2017-12-26T06:52:23.408Z,20.4
2017-12-26T06:53:31.495Z,20.4
2017-12-26T06:54:39.579Z,20.4
2017-12-26T06:55:47.662Z,20.4
2017-12-26T06:56:55.748Z,20.3
2017-12-26T06:58:03.833Z,20.4
2017-12-26T06:59:11.915Z,20.4
2017-12-26T07:00:20.004Z,20.3
2017-12-26T07:01:28.087Z,20.4
2017-12-26T07:02:36.171Z,20.3
2017-12-26T07:03:44.255Z,20.4
2017-12-26T07:04:52.536Z,20.5
2017-12-26T07:06:00.426Z,20.4
2017-12-26T07:07:08.511Z,20.4
2017-12-26T07:08:16.594Z,20.3
2017-12-26T07:09:24.679Z,20.4
2017-12-26T07:10:32.765Z,20.5
2017-12-26T07:11:40.851Z,20.4
2017-12-26T07:12:48.942Z,20.5
2017-12-26T07:13:57.022Z,20.5
2017-12-26T07:15:05.107Z,20.5
2017-12-26T07:16:13.187Z,20.5
2017-12-26T07:17:21.277Z,20.5
2017-12-26T07:18:29.359Z,20.4
2017-12-26T07:19:37.443Z,20.5
2017-12-26T07:20:45.530Z,20.4
2017-12-26T07:21:53.615Z,20.5
2017-12-26T07:23:01.700Z,20.4
2017-12-26T07:24:09.835Z,20.5
2017-12-26T07:25:17.893Z,20.5
2017-12-26T07:26:25.983Z,20.4
2017-12-26T07:27:34.066Z,20.4
2017-12-26T07:28:42.149Z,20.5
2017-12-26T07:29:50.334Z,20.5
2017-12-26T07:30:58.318Z,20.5
2017-12-26T07:32:06.404Z,20.4
2017-12-26T07:33:14.490Z,20.4
2017-12-26T07:34:22.574Z,20.4
2017-12-26T07:35:30.691Z,20.5
2017-12-26T07:36:38.744Z,20.5
2017-12-26T07:37:46.828Z,20.5
2017-12-26T07:38:54.915Z,20.4
2017-12-26T07:40:03.006Z,20.6
2017-12-26T07:41:11.086Z,20.4
2017-12-26T07:42:19.170Z,20.4
2017-12-26T07:43:27.301Z,20.5
2017-12-26T07:44:35.341Z,20.5
2017-12-26T07:45:43.444Z,20.4
2017-12-26T07:46:51.512Z,20.4
2017-12-26T07:47:59.595Z,20.5
2017-12-26T07:49:07.681Z,20.5
2017-12-26T07:50:15.767Z,20.4
2017-12-26T07:51:23.848Z,20.5
2017-12-26T07:52:31.931Z,20.6
2017-12-26T07:53:40.026Z,20.4
2017-12-26T07:54:48.115Z,20.5
2017-12-26T07:55:56.195Z,20.5
2017-12-26T07:57:04.286Z,20.4
2017-12-26T07:58:12.377Z,20.5
2017-12-26T07:59:20.451Z,20.5
2017-12-26T08:00:28.535Z,20.5
2017-12-26T08:01:36.620Z,20.5
2017-12-26T08:02:44.707Z,20.5
2017-12-26T08:03:52.789Z,20.5
2017-12-26T08:05:00.872Z,20.5
2017-12-26T08:06:08.962Z,20.4
2017-12-26T08:07:17.047Z,20.5
2017-12-26T08:08:25.132Z,20.4
2017-12-26T08:09:33.216Z,20.5
2017-12-26T08:10:41.299Z,20.5
2017-12-26T08:11:49.388Z,20.5
2017-12-26T08:12:57.472Z,20.5
2017-12-26T08:14:05.559Z,20.4
2017-12-26T08:15:13.651Z,20.5
2017-12-26T08:16:21.735Z,20.4
2017-12-26T08:17:29.819Z,20.5
2017-12-26T08:18:37.954Z,20.5
2017-12-26T08:19:45.988Z,20.5
2017-12-26T08:20:54.077Z,20.4
2017-12-26T08:22:02.169Z,20.5
2017-12-26T08:23:10.252Z,20.5
2017-12-26T08:24:18.347Z,20.5
2017-12-26T08:25:26.431Z,20.5
2017-12-26T08:26:34.515Z,20.5
2017-12-26T08:27:42.602Z,20.5
2017-12-26T08:28:50.689Z,20.3
2017-12-26T08:29:58.769Z,20.5
2017-12-26T08:31:07.087Z,20.5
2017-12-26T08:32:14.940Z,20.5
2017-12-26T08:33:23.030Z,20.5
2017-12-26T08:34:31.109Z,20.6
2017-12-26T08:35:39.192Z,20.5
2017-12-26T08:36:47.280Z,20.6
2017-12-26T08:37:55.362Z,20.4
2017-12-26T08:39:03.449Z,20.5
2017-12-26T08:40:11.540Z,20.5
2017-12-26T08:41:19.617Z,20.5
2017-12-26T08:42:27.702Z,20.5
2017-12-26T08:43:35.786Z,20.6
2017-12-26T08:44:43.872Z,20.5
2017-12-26T08:45:51.954Z,20.5
2017-12-26T08:47:00.039Z,20.5
2017-12-26T08:48:08.144Z,20.6
2017-12-26T08:49:16.211Z,20.6
2017-12-26T08:50:24.296Z,20.6
2017-12-26T08:51:32.379Z,20.6
2017-12-26T08:52:40.463Z,20.6
2017-12-26T08:53:48.548Z,20.7
2017-12-26T08:54:56.633Z,20.7
2017-12-26T08:56:04.725Z,20.7
2017-12-26T08:57:12.810Z,20.8
2017-12-26T08:58:20.896Z,20.7
2017-12-26T08:59:28.985Z,20.7
2017-12-26T09:00:37.073Z,20.7
2017-12-26T09:01:45.160Z,20.7
2017-12-26T09:02:53.242Z,20.7
2017-12-26T09:04:01.327Z,20.7
2017-12-26T09:05:09.409Z,20.7
2017-12-26T09:06:17.495Z,20.7
2017-12-26T09:07:25.583Z,20.8
2017-12-26T09:08:33.677Z,20.8
2017-12-26T09:09:41.749Z,20.9
2017-12-26T09:10:49.832Z,20.8
2017-12-26T09:11:57.917Z,20.9
2017-12-26T09:13:06.003Z,20.9
2017-12-26T09:14:14.086Z,20.9
2017-12-26T09:15:22.174Z,20.8
2017-12-26T09:16:30.262Z,20.8
2017-12-26T09:17:38.344Z,20.9
2017-12-26T09:18:46.427Z,20.9
2017-12-26T09:19:54.511Z,20.9
2017-12-26T09:21:02.599Z,20.9
2017-12-26T09:22:10.683Z,20.9
2017-12-26T09:23:18.768Z,20.9
2017-12-26T09:24:26.853Z,20.9
2017-12-26T09:25:34.935Z,20.9
2017-12-26T09:26:43.023Z,21.0
2017-12-26T09:27:51.111Z,20.9
2017-12-26T09:28:59.191Z,21.0
2017-12-26T09:30:07.282Z,21.0
2017-12-26T09:31:15.362Z,21.0
2017-12-26T09:32:23.446Z,21.1
2017-12-26T09:33:31.533Z,21.0
2017-12-26T09:34:39.622Z,21.1
2017-12-26T09:35:47.702Z,21.0
2017-12-26T09:36:55.786Z,21.0
2017-12-26T09:38:03.871Z,21.1
2017-12-26T09:39:11.957Z,21.0
2017-12-26T09:40:20.043Z,21.0
2017-12-26T09:41:28.128Z,21.0
2017-12-26T09:42:36.212Z,21.0
2017-12-26T09:43:44.301Z,21.0
2017-12-26T09:44:52.384Z,21.0
2017-12-26T09:46:00.469Z,21.1
2017-12-26T09:47:08.555Z,21.1
2017-12-26T09:48:16.657Z,21.0
2017-12-26T09:49:24.720Z,21.1
2017-12-26T09:50:32.820Z,21.1
2017-12-26T09:51:40.900Z,21.1
2017-12-26T09:52:48.985Z,21.0
2017-12-26T09:53:57.072Z,21.1
2017-12-26T09:55:05.160Z,21.1
2017-12-26T09:56:13.244Z,21.1
2017-12-26T09:57:21.345Z,21.1
2017-12-26T09:58:29.414Z,21.1
2017-12-26T09:59:37.504Z,21.2
2017-12-26T10:00:45.584Z,21.1
2017-12-26T10:01:53.670Z,21.2
2017-12-26T10:03:01.754Z,21.2
2017-12-26T10:04:09.842Z,21.2
2017-12-26T10:05:17.925Z,21.1
2017-12-26T10:06:26.539Z,21.1
2017-12-26T10:07:34.094Z,21.2
2017-12-26T10:08:42.182Z,21.1
2017-12-26T10:09:50.266Z,21.2
2017-12-26T10:10:58.350Z,21.1
2017-12-26T10:12:06.476Z,21.2
2017-12-26T10:13:14.523Z,21.1
2017-12-26T10:14:22.611Z,21.2
2017-12-26T10:15:30.692Z,21.3
2017-12-26T10:16:38.785Z,21.3
2017-12-26T10:17:46.864Z,21.3
2017-12-26T10:18:54.960Z,21.3
2017-12-26T10:20:03.045Z,21.2
2017-12-26T10:21:11.130Z,21.2
2017-12-26T10:22:19.215Z,21.3
2017-12-26T10:23:27.312Z,21.2
2017-12-26T10:24:35.397Z,21.3
2017-12-26T10:25:43.497Z,21.3
2017-12-26T10:26:51.583Z,21.3
2017-12-26T10:27:59.667Z,21.3
2017-12-26T10:29:07.749Z,21.3
2017-12-26T10:30:15.838Z,21.3
2017-12-26T10:31:23.922Z,21.3
2017-12-26T10:32:32.007Z,21.3
2017-12-26T10:33:40.094Z,21.4
2017-12-26T10:34:48.180Z,21.4
2017-12-26T10:35:56.264Z,21.4
2017-12-26T10:37:04.346Z,21.4
2017-12-26T10:38:12.431Z,21.4
2017-12-26T10:39:20.514Z,21.4
2017-12-26T10:40:28.617Z,21.3
2017-12-26T10:41:36.980Z,21.4
2017-12-26T10:42:45.067Z,21.4
2017-12-26T10:43:53.153Z,21.4
2017-12-26T10:45:01.238Z,21.4
2017-12-26T10:46:09.322Z,21.4
2017-12-26T10:47:17.413Z,21.4
2017-12-26T10:48:25.494Z,21.4
2017-12-26T10:49:33.577Z,21.4
2017-12-26T10:50:41.672Z,21.4
2017-12-26T10:51:49.758Z,21.4
2017-12-26T10:52:57.851Z,21.4
2017-12-26T10:54:05.927Z,21.5
2017-12-26T10:55:14.015Z,21.4
2017-12-26T10:56:22.116Z,21.4
2017-12-26T10:57:30.183Z,21.5
2017-12-26T10:58:38.276Z,21.5
2017-12-26T10:59:46.356Z,21.5
2017-12-26T11:00:54.439Z,21.5
2017-12-26T11:02:02.525Z,21.5
2017-12-26T11:03:10.611Z,21.5
2017-12-26T11:04:18.697Z,21.5
2017-12-26T11:05:26.787Z,21.5
2017-12-26T11:06:34.878Z,21.6
2017-12-26T11:07:42.960Z,21.6
2017-12-26T11:08:51.055Z,21.6
2017-12-26T11:10:04.440Z,21.5
2017-12-26T11:11:10.116Z,21.6
2017-12-26T11:12:18.203Z,21.6
2017-12-26T11:13:26.300Z,21.6
2017-12-26T11:14:34.383Z,21.6
2017-12-26T11:15:42.471Z,21.5
2017-12-26T11:16:50.555Z,21.6
2017-12-26T11:17:58.642Z,21.6
2017-12-26T11:19:06.727Z,21.6
2017-12-26T11:20:14.814Z,21.6
2017-12-26T11:21:22.901Z,21.6
2017-12-26T11:22:31.032Z,21.6
2017-12-26T11:23:39.101Z,21.6
2017-12-26T11:24:47.154Z,21.6
2017-12-26T11:25:55.240Z,21.6
2017-12-26T11:27:03.323Z,21.6
2017-12-26T11:28:11.413Z,21.6
2017-12-26T11:29:19.494Z,21.7
2017-12-26T11:30:27.580Z,21.6
2017-12-26T11:31:35.663Z,21.6
2017-12-26T11:32:43.754Z,21.6
2017-12-26T11:33:51.836Z,21.6
2017-12-26T11:34:59.922Z,21.6
2017-12-26T11:36:08.012Z,21.6
2017-12-26T11:37:16.095Z,21.6
2017-12-26T11:38:24.178Z,21.6
2017-12-26T11:39:32.266Z,21.6
2017-12-26T11:40:40.351Z,21.6
2017-12-26T11:41:48.435Z,21.6
2017-12-26T11:42:56.518Z,21.6
2017-12-26T11:44:04.612Z,21.6
2017-12-26T11:45:12.690Z,21.6
2017-12-26T11:46:20.778Z,21.7
2017-12-26T11:47:28.863Z,21.5
2017-12-26T11:48:36.948Z,21.6
2017-12-26T11:49:45.060Z,21.7
2017-12-26T11:50:53.146Z,21.6
2017-12-26T11:52:01.231Z,21.6
2017-12-26T11:53:09.554Z,21.6
2017-12-26T11:54:17.640Z,21.6
2017-12-26T11:55:25.731Z,21.6
2017-12-26T11:56:33.815Z,21.6
2017-12-26T11:57:41.899Z,21.6
2017-12-26T11:58:49.989Z,21.6
2017-12-26T11:59:58.070Z,21.6
2017-12-26T12:01:06.182Z,21.6
2017-12-26T12:02:14.248Z,21.7
2017-12-26T12:03:22.342Z,21.6
2017-12-26T12:04:30.418Z,21.6
2017-12-26T12:05:38.505Z,21.6
2017-12-26T12:06:46.616Z,21.6
2017-12-26T12:07:54.675Z,21.6
2017-12-26T12:09:02.762Z,21.6
2017-12-26T12:10:10.846Z,21.6
2017-12-26T12:11:18.933Z,21.6
2017-12-26T12:12:27.018Z,21.6
2017-12-26T12:13:35.108Z,21.7
2017-12-26T12:14:43.200Z,21.7
2017-12-26T12:15:51.276Z,21.6
2017-12-26T12:16:59.360Z,21.7
2017-12-26T12:18:07.446Z,21.6
2017-12-26T12:19:15.529Z,21.6
2017-12-26T12:20:23.616Z,21.7
2017-12-26T12:21:31.710Z,21.6
2017-12-26T12:23:47.880Z,21.7
2017-12-26T12:24:55.965Z,21.6
2017-12-26T12:26:04.052Z,21.6
2017-12-26T12:27:12.134Z,21.6
2017-12-26T12:28:20.219Z,21.7
2017-12-26T12:29:28.329Z,21.7
2017-12-26T12:30:36.412Z,21.7
2017-12-26T12:31:44.498Z,21.8
2017-12-26T12:32:52.584Z,21.7
2017-12-26T12:34:00.670Z,21.7
2017-12-26T12:35:08.759Z,21.7
2017-12-26T12:36:16.841Z,21.7
2017-12-26T12:37:24.926Z,21.8
2017-12-26T12:38:33.013Z,21.7
2017-12-26T12:39:41.099Z,21.7
2017-12-26T12:40:49.184Z,21.8
2017-12-26T12:41:57.267Z,21.7
2017-12-26T12:43:05.352Z,21.7
2017-12-26T12:44:13.443Z,21.7
2017-12-26T12:45:21.522Z,21.7
2017-12-26T12:46:29.609Z,21.7
2017-12-26T12:47:37.694Z,21.8
2017-12-26T12:48:45.783Z,21.8
2017-12-26T12:49:53.868Z,21.8
2017-12-26T12:51:01.954Z,21.8
2017-12-26T12:52:10.037Z,21.8
2017-12-26T12:53:18.126Z,21.8
2017-12-26T12:54:26.211Z,21.8
2017-12-26T12:55:34.294Z,21.8
2017-12-26T12:56:42.383Z,21.8
2017-12-26T12:57:50.465Z,21.7
2017-12-26T12:58:58.552Z,21.8
2017-12-26T13:00:06.649Z,21.8
2017-12-26T13:01:14.725Z,21.8
2017-12-26T13:02:22.810Z,21.8
2017-12-26T13:03:30.897Z,21.8
2017-12-26T13:04:39.042Z,21.9
2017-12-26T13:05:47.095Z,21.9
2017-12-26T13:06:55.163Z,21.9
2017-12-26T13:08:03.248Z,21.9
2017-12-26T13:09:11.342Z,21.8
2017-12-26T13:10:19.531Z,21.9
2017-12-26T13:11:27.616Z,21.9
2017-12-26T13:12:35.890Z,21.9
2017-12-26T13:13:43.981Z,21.9
2017-12-26T13:14:52.068Z,21.9
2017-12-26T13:16:00.149Z,21.9
2017-12-26T13:17:08.772Z,21.9
2017-12-26T13:18:16.853Z,22.0
2017-12-26T13:19:24.925Z,21.9
2017-12-26T13:20:33.031Z,21.9
2017-12-26T13:21:41.093Z,22.0
2017-12-26T13:22:49.188Z,21.9
2017-12-26T13:23:57.273Z,21.9
2017-12-26T13:25:05.360Z,22.0
2017-12-26T13:26:13.452Z,22.0
2017-12-26T13:27:21.532Z,22.0
2017-12-26T13:28:29.617Z,22.0
2017-12-26T13:29:37.702Z,22.0
2017-12-26T13:30:45.790Z,22.0
2017-12-26T13:31:53.874Z,22.1
2017-12-26T13:33:01.963Z,22.0
2017-12-26T13:34:10.045Z,22.1
2017-12-26T13:35:18.129Z,22.1
2017-12-26T13:36:26.213Z,22.0
2017-12-26T13:37:34.300Z,22.1
2017-12-26T13:38:42.419Z,22.1
2017-12-26T13:39:50.473Z,22.1
2017-12-26T13:40:58.559Z,22.1
2017-12-26T13:42:06.645Z,22.1
2017-12-26T13:43:14.728Z,22.1
2017-12-26T13:44:22.809Z,22.1
2017-12-26T13:45:30.898Z,22.0
2017-12-26T13:46:38.988Z,22.1
2017-12-26T13:47:47.077Z,22.1
2017-12-26T13:48:55.156Z,22.1
2017-12-26T13:50:03.247Z,22.2
2017-12-26T13:51:11.339Z,22.1
2017-12-26T13:52:19.428Z,22.2
2017-12-26T13:53:27.521Z,22.2
2017-12-26T13:54:35.605Z,22.2
2017-12-26T13:55:43.690Z,22.2
2017-12-26T13:56:51.854Z,22.2
2017-12-26T13:57:59.939Z,22.2
2017-12-26T13:59:08.027Z,22.2
2017-12-26T14:00:16.112Z,22.2
2017-12-26T14:01:24.196Z,22.1
2017-12-26T14:02:32.280Z,22.2
2017-12-26T14:03:40.374Z,22.2
2017-12-26T14:04:48.455Z,22.2
2017-12-26T14:05:56.541Z,22.2
2017-12-26T14:07:04.626Z,22.2
2017-12-26T14:08:12.713Z,22.2
2017-12-26T14:09:20.888Z,22.2
2017-12-26T14:10:28.992Z,22.2
2017-12-26T14:11:37.061Z,22.3
2017-12-26T14:12:45.156Z,22.3
2017-12-26T14:13:53.242Z,22.2
2017-12-26T14:15:01.324Z,22.2
2017-12-26T14:16:09.413Z,22.2
2017-12-26T14:17:17.502Z,22.2
2017-12-26T14:18:25.585Z,22.2
2017-12-26T14:19:33.672Z,22.2
2017-12-26T14:20:41.756Z,22.2
2017-12-26T14:21:49.845Z,22.2
2017-12-26T14:22:57.929Z,22.2
2017-12-26T14:24:06.020Z,22.3
2017-12-26T14:25:14.105Z,22.2
2017-12-26T14:26:22.188Z,22.2
2017-12-26T14:27:30.273Z,22.2
2017-12-26T14:28:38.356Z,22.2
2017-12-26T14:29:47.205Z,22.2
2017-12-26T14:30:55.289Z,22.2
2017-12-26T14:32:03.377Z,22.2
2017-12-26T14:33:11.462Z,22.2
2017-12-26T14:34:19.549Z,22.2
2017-12-26T14:35:27.638Z,22.2
2017-12-26T14:36:35.720Z,22.2
2017-12-26T14:37:43.807Z,22.2
2017-12-26T14:38:51.892Z,22.2
2017-12-26T14:39:59.982Z,22.2
2017-12-26T14:41:08.069Z,22.2
2017-12-26T14:42:16.155Z,22.2
2017-12-26T14:43:24.239Z,22.2
2017-12-26T14:44:32.328Z,22.3
2017-12-26T14:45:40.410Z,22.2
2017-12-26T14:46:48.499Z,22.2
2017-12-26T14:47:56.584Z,22.2
2017-12-26T14:49:04.668Z,22.2
2017-12-26T14:50:12.755Z,22.1
2017-12-26T14:51:20.846Z,22.2
2017-12-26T14:52:28.932Z,22.2
2017-12-26T14:53:37.018Z,22.2
2017-12-26T14:54:45.121Z,22.2
2017-12-26T14:55:53.210Z,22.2
2017-12-26T14:57:01.295Z,22.2
2017-12-26T14:58:09.382Z,22.2
2017-12-26T14:59:17.468Z,22.2
2017-12-26T15:00:25.553Z,22.2
2017-12-26T15:01:33.640Z,22.3
2017-12-26T15:02:41.725Z,22.3
2017-12-26T15:03:49.810Z,22.2
2017-12-26T15:04:57.897Z,22.2
2017-12-26T15:06:05.984Z,22.2
2017-12-26T15:07:14.070Z,22.2